sensor_id;sensor_type;location;lat;lon;timestamp;temperature;humidity
15455;DHT22;21057;51.024;7.540;2023-06-22T00:03:00;22.50;99.90
15455;DHT22;21057;51.024;7.540;2023-06-22T00:10:37;22.50;99.90
15455;DHT22;21057;51.024;7.540;2023-06-22T00:13:07;22.40;99.90
15455;DHT22;21057;51.024;7.540;2023-06-22T00:15:35;22.40;99.90
15455;DHT22;21057;51.024;7.540;2023-06-22T00:18:05;22.40;99.90
15455;DHT22;21057;51.024;7.540;2023-06-22T00:20:32;22.40;99.90
15455;DHT22;21057;51.024;7.540;2023-06-22T00:23:03;22.40;99.90
15455;DHT22;21057;51.024;7.540;2023-06-22T00:25:36;22.40;99.90
15455;DHT22;21057;51.024;7.540;2023-06-22T00:28:05;22.30;99.90
15455;DHT22;21057;51.024;7.540;2023-06-22T00:30:34;22.30;99.90
15455;DHT22;21057;51.024;7.540;2023-06-22T00:33:01;22.30;99.90
15455;DHT22;21057;51.024;7.540;2023-06-22T00:35:31;22.30;99.90
15455;DHT22;21057;51.024;7.540;2023-06-22T00:37:59;22.40;99.90
15455;DHT22;21057;51.024;7.540;2023-06-22T00:40:28;22.40;99.90
15455;DHT22;21057;51.024;7.540;2023-06-22T00:42:55;22.30;99.90
15455;DHT22;21057;51.024;7.540;2023-06-22T00:45:25;22.40;99.90
15455;DHT22;21057;51.024;7.540;2023-06-22T00:47:52;22.30;99.90
15455;DHT22;21057;51.024;7.540;2023-06-22T00:50:23;22.30;99.90
15455;DHT22;21057;51.024;7.540;2023-06-22T00:52:52;22.30;99.90
15455;DHT22;21057;51.024;7.540;2023-06-22T00:55:20;22.30;99.90
15455;DHT22;21057;51.024;7.540;2023-06-22T00:57:47;22.20;99.90
15455;DHT22;21057;51.024;7.540;2023-06-22T01:00:15;22.30;99.90
15455;DHT22;21057;51.024;7.540;2023-06-22T01:02:44;22.20;99.90
15455;DHT22;21057;51.024;7.540;2023-06-22T01:05:18;22.20;99.90
15455;DHT22;21057;51.024;7.540;2023-06-22T01:07:56;22.10;99.90
15455;DHT22;21057;51.024;7.540;2023-06-22T01:10:30;22.10;99.90
15455;DHT22;21057;51.024;7.540;2023-06-22T01:13:02;22.20;99.90
15455;DHT22;21057;51.024;7.540;2023-06-22T01:15:36;22.20;99.90
15455;DHT22;21057;51.024;7.540;2023-06-22T01:18:08;22.10;99.90
15455;DHT22;21057;51.024;7.540;2023-06-22T01:20:37;22.10;99.90
15455;DHT22;21057;51.024;7.540;2023-06-22T01:23:11;22.10;99.90
15455;DHT22;21057;51.024;7.540;2023-06-22T01:25:46;22.20;99.90
15455;DHT22;21057;51.024;7.540;2023-06-22T01:30:53;22.30;99.90
15455;DHT22;21057;51.024;7.540;2023-06-22T01:33:29;22.30;99.90
15455;DHT22;21057;51.024;7.540;2023-06-22T01:35:58;22.40;99.90
15455;DHT22;21057;51.024;7.540;2023-06-22T01:38:28;22.30;99.90
15455;DHT22;21057;51.024;7.540;2023-06-22T01:40:57;22.40;99.90
15455;DHT22;21057;51.024;7.540;2023-06-22T01:43:26;22.40;99.90
15455;DHT22;21057;51.024;7.540;2023-06-22T01:45:56;22.30;99.90
15455;DHT22;21057;51.024;7.540;2023-06-22T01:48:26;22.20;99.90
15455;DHT22;21057;51.024;7.540;2023-06-22T01:50:55;22.20;99.90
15455;DHT22;21057;51.024;7.540;2023-06-22T01:53:24;22.20;99.90
15455;DHT22;21057;51.024;7.540;2023-06-22T01:55:52;22.10;99.90
15455;DHT22;21057;51.024;7.540;2023-06-22T01:58:25;22.20;99.90
15455;DHT22;21057;51.024;7.540;2023-06-22T02:00:58;22.20;99.90
15455;DHT22;21057;51.024;7.540;2023-06-22T02:03:32;22.20;99.90
15455;DHT22;21057;51.024;7.540;2023-06-22T02:06:21;22.20;99.90
15455;DHT22;21057;51.024;7.540;2023-06-22T02:08:55;22.20;99.90
15455;DHT22;21057;51.024;7.540;2023-06-22T02:11:25;22.20;99.90
15455;DHT22;21057;51.024;7.540;2023-06-22T02:13:57;22.20;99.90
15455;DHT22;21057;51.024;7.540;2023-06-22T02:16:27;22.20;99.90
15455;DHT22;21057;51.024;7.540;2023-06-22T02:18:55;22.20;99.90
15455;DHT22;21057;51.024;7.540;2023-06-22T02:21:29;22.20;99.90
15455;DHT22;21057;51.024;7.540;2023-06-22T02:23:56;22.20;99.90
15455;DHT22;21057;51.024;7.540;2023-06-22T02:26:24;22.20;99.90
15455;DHT22;21057;51.024;7.540;2023-06-22T02:28:51;22.20;99.90
15455;DHT22;21057;51.024;7.540;2023-06-22T02:31:19;22.30;99.90
15455;DHT22;21057;51.024;7.540;2023-06-22T02:33:58;22.40;99.90
15455;DHT22;21057;51.024;7.540;2023-06-22T02:36:26;22.40;99.90
15455;DHT22;21057;51.024;7.540;2023-06-22T02:38:56;22.30;99.90
15455;DHT22;21057;51.024;7.540;2023-06-22T02:41:26;22.30;99.90
15455;DHT22;21057;51.024;7.540;2023-06-22T02:43:54;22.20;99.90
15455;DHT22;21057;51.024;7.540;2023-06-22T02:46:21;22.20;99.90
15455;DHT22;21057;51.024;7.540;2023-06-22T02:48:51;22.30;99.90
15455;DHT22;21057;51.024;7.540;2023-06-22T02:51:19;22.30;99.90
15455;DHT22;21057;51.024;7.540;2023-06-22T02:53:48;22.30;99.90
15455;DHT22;21057;51.024;7.540;2023-06-22T02:56:19;22.30;99.90
15455;DHT22;21057;51.024;7.540;2023-06-22T02:58:50;22.40;99.90
15455;DHT22;21057;51.024;7.540;2023-06-22T03:01:19;22.40;99.90
15455;DHT22;21057;51.024;7.540;2023-06-22T03:03:52;22.40;99.90
15455;DHT22;21057;51.024;7.540;2023-06-22T03:06:23;22.30;99.90
15455;DHT22;21057;51.024;7.540;2023-06-22T03:08:58;22.40;99.90
15455;DHT22;21057;51.024;7.540;2023-06-22T03:11:31;22.30;99.90
15455;DHT22;21057;51.024;7.540;2023-06-22T03:13:58;22.20;99.90
15455;DHT22;21057;51.024;7.540;2023-06-22T03:16:26;22.30;99.90
15455;DHT22;21057;51.024;7.540;2023-06-22T03:18:53;22.30;99.90
15455;DHT22;21057;51.024;7.540;2023-06-22T03:21:23;22.30;99.90
15455;DHT22;21057;51.024;7.540;2023-06-22T03:23:51;22.40;99.90
15455;DHT22;21057;51.024;7.540;2023-06-22T03:26:18;22.30;99.90
15455;DHT22;21057;51.024;7.540;2023-06-22T03:28:46;22.40;99.90
15455;DHT22;21057;51.024;7.540;2023-06-22T03:31:13;22.40;99.90
15455;DHT22;21057;51.024;7.540;2023-06-22T03:33:40;22.30;99.90
15455;DHT22;21057;51.024;7.540;2023-06-22T03:36:07;22.30;99.90
15455;DHT22;21057;51.024;7.540;2023-06-22T03:38:36;22.30;99.90
15455;DHT22;21057;51.024;7.540;2023-06-22T03:41:03;22.30;99.90
15455;DHT22;21057;51.024;7.540;2023-06-22T03:43:30;22.30;99.90
15455;DHT22;21057;51.024;7.540;2023-06-22T03:45:57;22.30;99.90
15455;DHT22;21057;51.024;7.540;2023-06-22T03:48:25;22.40;99.90
15455;DHT22;21057;51.024;7.540;2023-06-22T03:50:52;22.50;99.90
15455;DHT22;21057;51.024;7.540;2023-06-22T03:53:19;22.50;99.90
15455;DHT22;21057;51.024;7.540;2023-06-22T03:55:53;22.40;99.90
15455;DHT22;21057;51.024;7.540;2023-06-22T03:58:21;22.60;99.90
15455;DHT22;21057;51.024;7.540;2023-06-22T04:00:49;22.50;99.90
15455;DHT22;21057;51.024;7.540;2023-06-22T04:03:19;22.50;99.90
15455;DHT22;21057;51.024;7.540;2023-06-22T04:05:47;22.50;99.90
15455;DHT22;21057;51.024;7.540;2023-06-22T04:08:14;22.50;99.90
15455;DHT22;21057;51.024;7.540;2023-06-22T04:10:45;22.50;99.90
15455;DHT22;21057;51.024;7.540;2023-06-22T04:13:28;22.50;99.90
15455;DHT22;21057;51.024;7.540;2023-06-22T04:15:57;22.50;99.90
15455;DHT22;21057;51.024;7.540;2023-06-22T04:18:35;22.50;99.90
15455;DHT22;21057;51.024;7.540;2023-06-22T04:21:14;22.50;99.90
15455;DHT22;21057;51.024;7.540;2023-06-22T04:23:49;22.50;99.90
15455;DHT22;21057;51.024;7.540;2023-06-22T04:26:16;22.50;99.90
15455;DHT22;21057;51.024;7.540;2023-06-22T04:28:51;22.50;99.90
15455;DHT22;21057;51.024;7.540;2023-06-22T04:31:23;22.50;99.90
15455;DHT22;21057;51.024;7.540;2023-06-22T04:33:57;22.60;99.90
15455;DHT22;21057;51.024;7.540;2023-06-22T04:36:34;22.60;99.90
15455;DHT22;21057;51.024;7.540;2023-06-22T04:39:09;22.60;99.90
15455;DHT22;21057;51.024;7.540;2023-06-22T04:41:37;22.60;99.90
15455;DHT22;21057;51.024;7.540;2023-06-22T04:44:16;22.70;99.90
15455;DHT22;21057;51.024;7.540;2023-06-22T04:46:49;22.70;99.90
15455;DHT22;21057;51.024;7.540;2023-06-22T04:49:21;22.70;99.90
15455;DHT22;21057;51.024;7.540;2023-06-22T04:51:50;22.60;99.90
15455;DHT22;21057;51.024;7.540;2023-06-22T04:54:20;22.60;99.90
15455;DHT22;21057;51.024;7.540;2023-06-22T04:56:52;22.70;99.90
15455;DHT22;21057;51.024;7.540;2023-06-22T04:59:29;22.70;99.90
15455;DHT22;21057;51.024;7.540;2023-06-22T05:02:00;22.70;99.90
15455;DHT22;21057;51.024;7.540;2023-06-22T05:04:31;22.80;99.90
15455;DHT22;21057;51.024;7.540;2023-06-22T05:06:59;22.80;99.90
15455;DHT22;21057;51.024;7.540;2023-06-22T05:09:27;22.70;99.90
15455;DHT22;21057;51.024;7.540;2023-06-22T05:11:55;22.70;99.90
15455;DHT22;21057;51.024;7.540;2023-06-22T05:14:23;22.70;99.90
15455;DHT22;21057;51.024;7.540;2023-06-22T05:16:52;22.90;99.90
15455;DHT22;21057;51.024;7.540;2023-06-22T05:19:19;23.00;99.90
15455;DHT22;21057;51.024;7.540;2023-06-22T05:21:46;23.00;99.90
15455;DHT22;21057;51.024;7.540;2023-06-22T05:24:14;23.00;99.90
15455;DHT22;21057;51.024;7.540;2023-06-22T05:26:41;22.90;99.90
15455;DHT22;21057;51.024;7.540;2023-06-22T05:29:08;22.90;99.90
15455;DHT22;21057;51.024;7.540;2023-06-22T05:31:35;22.90;99.90
15455;DHT22;21057;51.024;7.540;2023-06-22T05:34:03;22.90;99.90
15455;DHT22;21057;51.024;7.540;2023-06-22T05:36:30;22.90;99.90
15455;DHT22;21057;51.024;7.540;2023-06-22T05:38:57;23.00;99.90
15455;DHT22;21057;51.024;7.540;2023-06-22T05:41:30;23.00;99.90
15455;DHT22;21057;51.024;7.540;2023-06-22T05:43:57;22.90;99.90
15455;DHT22;21057;51.024;7.540;2023-06-22T05:46:24;23.00;99.90
15455;DHT22;21057;51.024;7.540;2023-06-22T05:48:51;23.00;99.90
15455;DHT22;21057;51.024;7.540;2023-06-22T05:51:19;23.00;99.90
15455;DHT22;21057;51.024;7.540;2023-06-22T05:53:48;23.00;99.90
15455;DHT22;21057;51.024;7.540;2023-06-22T05:56:16;23.00;99.90
15455;DHT22;21057;51.024;7.540;2023-06-22T05:58:46;23.00;99.90
15455;DHT22;21057;51.024;7.540;2023-06-22T06:01:13;23.00;99.90
15455;DHT22;21057;51.024;7.540;2023-06-22T06:03:41;23.20;99.90
15455;DHT22;21057;51.024;7.540;2023-06-22T06:06:08;23.10;99.90
15455;DHT22;21057;51.024;7.540;2023-06-22T06:08:37;23.00;99.90
15455;DHT22;21057;51.024;7.540;2023-06-22T06:11:04;23.20;99.90
15455;DHT22;21057;51.024;7.540;2023-06-22T06:13:31;23.30;99.90
15455;DHT22;21057;51.024;7.540;2023-06-22T06:15:58;23.30;99.90
15455;DHT22;21057;51.024;7.540;2023-06-22T06:18:25;23.40;99.90
15455;DHT22;21057;51.024;7.540;2023-06-22T06:20:52;23.50;99.90
15455;DHT22;21057;51.024;7.540;2023-06-22T06:23:18;23.70;99.90
15455;DHT22;21057;51.024;7.540;2023-06-22T06:25:46;23.70;99.90
15455;DHT22;21057;51.024;7.540;2023-06-22T06:28:13;23.80;99.90
15455;DHT22;21057;51.024;7.540;2023-06-22T06:30:40;23.80;99.90
15455;DHT22;21057;51.024;7.540;2023-06-22T06:33:07;23.80;99.90
15455;DHT22;21057;51.024;7.540;2023-06-22T06:35:34;24.00;99.90
15455;DHT22;21057;51.024;7.540;2023-06-22T06:38:01;24.00;99.90
15455;DHT22;21057;51.024;7.540;2023-06-22T06:40:29;24.10;99.90
15455;DHT22;21057;51.024;7.540;2023-06-22T06:42:57;24.30;99.90
15455;DHT22;21057;51.024;7.540;2023-06-22T06:45:24;24.50;99.90
15455;DHT22;21057;51.024;7.540;2023-06-22T06:47:53;24.70;99.90
15455;DHT22;21057;51.024;7.540;2023-06-22T06:50:20;25.00;99.90
15455;DHT22;21057;51.024;7.540;2023-06-22T06:52:46;25.30;99.90
15455;DHT22;21057;51.024;7.540;2023-06-22T06:55:15;25.30;99.90
15455;DHT22;21057;51.024;7.540;2023-06-22T06:57:43;25.30;99.90
15455;DHT22;21057;51.024;7.540;2023-06-22T07:00:12;25.30;99.90
15455;DHT22;21057;51.024;7.540;2023-06-22T07:02:41;25.30;99.90
15455;DHT22;21057;51.024;7.540;2023-06-22T07:05:09;25.30;99.90
15455;DHT22;21057;51.024;7.540;2023-06-22T07:07:36;25.20;99.90
15455;DHT22;21057;51.024;7.540;2023-06-22T07:10:03;25.40;99.90
15455;DHT22;21057;51.024;7.540;2023-06-22T07:12:30;25.30;99.90
15455;DHT22;21057;51.024;7.540;2023-06-22T07:15:04;25.60;99.90
15455;DHT22;21057;51.024;7.540;2023-06-22T07:17:35;25.60;99.90
15455;DHT22;21057;51.024;7.540;2023-06-22T07:20:04;25.50;99.90
15455;DHT22;21057;51.024;7.540;2023-06-22T07:22:35;25.60;99.90
15455;DHT22;21057;51.024;7.540;2023-06-22T07:25:03;25.70;99.90
15455;DHT22;21057;51.024;7.540;2023-06-22T07:27:35;25.70;99.90
15455;DHT22;21057;51.024;7.540;2023-06-22T07:30:04;25.70;99.90
15455;DHT22;21057;51.024;7.540;2023-06-22T07:32:31;25.70;99.90
15455;DHT22;21057;51.024;7.540;2023-06-22T07:34:59;26.00;99.90
15455;DHT22;21057;51.024;7.540;2023-06-22T07:37:27;26.10;99.90
15455;DHT22;21057;51.024;7.540;2023-06-22T07:39:54;26.40;99.90
15455;DHT22;21057;51.024;7.540;2023-06-22T07:42:24;26.40;99.90
15455;DHT22;21057;51.024;7.540;2023-06-22T07:44:50;26.50;99.90
15455;DHT22;21057;51.024;7.540;2023-06-22T07:47:17;26.50;99.90
15455;DHT22;21057;51.024;7.540;2023-06-22T07:49:45;26.50;99.90
15455;DHT22;21057;51.024;7.540;2023-06-22T07:52:13;26.50;99.90
15455;DHT22;21057;51.024;7.540;2023-06-22T07:54:39;26.70;99.90
15455;DHT22;21057;51.024;7.540;2023-06-22T07:57:06;26.70;99.90
15455;DHT22;21057;51.024;7.540;2023-06-22T07:59:33;27.00;99.90
15455;DHT22;21057;51.024;7.540;2023-06-22T08:02:01;27.00;99.90
15455;DHT22;21057;51.024;7.540;2023-06-22T08:04:28;27.20;99.90
15455;DHT22;21057;51.024;7.540;2023-06-22T08:06:56;27.20;99.90
15455;DHT22;21057;51.024;7.540;2023-06-22T08:09:24;27.10;99.90
15455;DHT22;21057;51.024;7.540;2023-06-22T08:11:51;27.30;99.90
15455;DHT22;21057;51.024;7.540;2023-06-22T08:14:18;27.30;99.90
15455;DHT22;21057;51.024;7.540;2023-06-22T08:16:45;27.40;99.90
15455;DHT22;21057;51.024;7.540;2023-06-22T08:19:11;27.40;99.90
15455;DHT22;21057;51.024;7.540;2023-06-22T08:21:38;27.60;99.50
15455;DHT22;21057;51.024;7.540;2023-06-22T08:24:06;27.70;99.90
15455;DHT22;21057;51.024;7.540;2023-06-22T08:26:35;27.80;99.80
15455;DHT22;21057;51.024;7.540;2023-06-22T08:29:03;27.80;99.60
15455;DHT22;21057;51.024;7.540;2023-06-22T08:31:30;28.00;99.60
15455;DHT22;21057;51.024;7.540;2023-06-22T08:33:57;28.20;99.90
15455;DHT22;21057;51.024;7.540;2023-06-22T08:36:24;28.30;99.80
15455;DHT22;21057;51.024;7.540;2023-06-22T08:38:51;28.30;99.40
15455;DHT22;21057;51.024;7.540;2023-06-22T08:41:18;28.30;99.20
15455;DHT22;21057;51.024;7.540;2023-06-22T08:43:46;28.40;98.70
15455;DHT22;21057;51.024;7.540;2023-06-22T08:46:12;28.60;99.30
15455;DHT22;21057;51.024;7.540;2023-06-22T08:48:39;28.80;98.40
15455;DHT22;21057;51.024;7.540;2023-06-22T08:51:06;29.00;97.90
15455;DHT22;21057;51.024;7.540;2023-06-22T08:53:33;29.10;97.90
15455;DHT22;21057;51.024;7.540;2023-06-22T08:56:00;29.20;97.30
15455;DHT22;21057;51.024;7.540;2023-06-22T08:58:27;29.40;96.80
15455;DHT22;21057;51.024;7.540;2023-06-22T09:00:55;29.40;97.30
15455;DHT22;21057;51.024;7.540;2023-06-22T09:03:22;29.50;96.70
15455;DHT22;21057;51.024;7.540;2023-06-22T09:05:52;29.60;97.10
15455;DHT22;21057;51.024;7.540;2023-06-22T09:08:19;29.70;96.80
15455;DHT22;21057;51.024;7.540;2023-06-22T09:10:46;30.10;95.90
15455;DHT22;21057;51.024;7.540;2023-06-22T09:13:25;30.10;95.50
15455;DHT22;21057;51.024;7.540;2023-06-22T09:15:52;30.10;95.40
15455;DHT22;21057;51.024;7.540;2023-06-22T09:18:20;30.30;95.80
15455;DHT22;21057;51.024;7.540;2023-06-22T09:20:47;30.40;94.90
15455;DHT22;21057;51.024;7.540;2023-06-22T09:23:15;30.50;95.80
15455;DHT22;21057;51.024;7.540;2023-06-22T09:25:42;30.50;94.80
15455;DHT22;21057;51.024;7.540;2023-06-22T09:28:08;30.30;94.80
15455;DHT22;21057;51.024;7.540;2023-06-22T09:30:35;30.10;95.20
15455;DHT22;21057;51.024;7.540;2023-06-22T09:33:02;30.00;95.80
15455;DHT22;21057;51.024;7.540;2023-06-22T09:35:30;29.70;95.90
15455;DHT22;21057;51.024;7.540;2023-06-22T09:37:57;29.70;95.90
15455;DHT22;21057;51.024;7.540;2023-06-22T09:40:24;29.70;96.20
15455;DHT22;21057;51.024;7.540;2023-06-22T09:42:54;29.70;96.40
15455;DHT22;21057;51.024;7.540;2023-06-22T09:45:21;29.50;96.60
15455;DHT22;21057;51.024;7.540;2023-06-22T09:47:47;29.60;96.80
15455;DHT22;21057;51.024;7.540;2023-06-22T09:50:14;29.60;97.10
15455;DHT22;21057;51.024;7.540;2023-06-22T09:52:42;29.70;97.20
15455;DHT22;21057;51.024;7.540;2023-06-22T09:55:12;29.70;96.50
15455;DHT22;21057;51.024;7.540;2023-06-22T09:57:41;29.80;96.50
15455;DHT22;21057;51.024;7.540;2023-06-22T10:00:08;30.10;96.80
15455;DHT22;21057;51.024;7.540;2023-06-22T10:02:37;30.30;97.20
15455;DHT22;21057;51.024;7.540;2023-06-22T10:05:04;30.10;96.00
15455;DHT22;21057;51.024;7.540;2023-06-22T10:07:31;30.10;96.60
15455;DHT22;21057;51.024;7.540;2023-06-22T10:09:59;30.30;97.00
15455;DHT22;21057;51.024;7.540;2023-06-22T10:12:27;30.40;95.90
15455;DHT22;21057;51.024;7.540;2023-06-22T10:14:54;30.30;95.60
15455;DHT22;21057;51.024;7.540;2023-06-22T10:17:20;30.30;95.60
15455;DHT22;21057;51.024;7.540;2023-06-22T10:19:47;30.00;95.40
15455;DHT22;21057;51.024;7.540;2023-06-22T10:22:14;29.70;95.70
15455;DHT22;21057;51.024;7.540;2023-06-22T10:24:41;29.40;96.70
15455;DHT22;21057;51.024;7.540;2023-06-22T10:27:11;29.20;96.70
15455;DHT22;21057;51.024;7.540;2023-06-22T10:29:39;29.10;96.00
15455;DHT22;21057;51.024;7.540;2023-06-22T10:32:07;28.90;95.60
15455;DHT22;21057;51.024;7.540;2023-06-22T10:34:34;28.50;96.60
15455;DHT22;21057;51.024;7.540;2023-06-22T10:37:00;28.40;97.00
15455;DHT22;21057;51.024;7.540;2023-06-22T10:39:27;28.30;97.10
15455;DHT22;21057;51.024;7.540;2023-06-22T10:41:54;28.20;97.20
15455;DHT22;21057;51.024;7.540;2023-06-22T10:44:23;28.10;97.20
15455;DHT22;21057;51.024;7.540;2023-06-22T10:46:49;28.00;97.90
15455;DHT22;21057;51.024;7.540;2023-06-22T10:49:16;28.00;98.30
15455;DHT22;21057;51.024;7.540;2023-06-22T10:51:43;27.90;98.40
15455;DHT22;21057;51.024;7.540;2023-06-22T10:54:10;27.80;98.70
15455;DHT22;21057;51.024;7.540;2023-06-22T10:56:39;27.70;98.10
15455;DHT22;21057;51.024;7.540;2023-06-22T10:59:06;27.70;99.00
15455;DHT22;21057;51.024;7.540;2023-06-22T11:01:34;27.60;99.80
15455;DHT22;21057;51.024;7.540;2023-06-22T11:04:02;27.40;99.90
15455;DHT22;21057;51.024;7.540;2023-06-22T11:06:31;27.30;99.90
15455;DHT22;21057;51.024;7.540;2023-06-22T11:08:59;27.30;99.90
15455;DHT22;21057;51.024;7.540;2023-06-22T11:11:37;27.20;99.90
15455;DHT22;21057;51.024;7.540;2023-06-22T11:14:03;27.00;99.90
15455;DHT22;21057;51.024;7.540;2023-06-22T11:16:30;26.80;99.90
15455;DHT22;21057;51.024;7.540;2023-06-22T11:18:58;26.60;99.90
15455;DHT22;21057;51.024;7.540;2023-06-22T11:21:25;26.50;99.90
15455;DHT22;21057;51.024;7.540;2023-06-22T11:23:52;26.30;99.90
15455;DHT22;21057;51.024;7.540;2023-06-22T11:26:19;26.10;99.90
15455;DHT22;21057;51.024;7.540;2023-06-22T11:28:47;26.00;99.90
15455;DHT22;21057;51.024;7.540;2023-06-22T11:31:13;26.00;99.90
15455;DHT22;21057;51.024;7.540;2023-06-22T11:33:40;25.80;99.90
15455;DHT22;21057;51.024;7.540;2023-06-22T11:36:08;25.60;99.90
15455;DHT22;21057;51.024;7.540;2023-06-22T11:38:36;25.60;99.90
15455;DHT22;21057;51.024;7.540;2023-06-22T11:41:05;25.30;99.90
15455;DHT22;21057;51.024;7.540;2023-06-22T11:43:32;25.00;99.90
15455;DHT22;21057;51.024;7.540;2023-06-22T11:45:59;24.90;99.90
15455;DHT22;21057;51.024;7.540;2023-06-22T11:48:26;24.60;99.90
15455;DHT22;21057;51.024;7.540;2023-06-22T11:50:54;24.40;99.90
15455;DHT22;21057;51.024;7.540;2023-06-22T11:53:25;24.30;99.90
15455;DHT22;21057;51.024;7.540;2023-06-22T11:55:53;24.00;99.90
15455;DHT22;21057;51.024;7.540;2023-06-22T11:58:20;24.00;99.90
15455;DHT22;21057;51.024;7.540;2023-06-22T12:00:48;24.00;99.90
15455;DHT22;21057;51.024;7.540;2023-06-22T12:03:15;24.10;99.90
15455;DHT22;21057;51.024;7.540;2023-06-22T12:05:42;24.00;99.90
15455;DHT22;21057;51.024;7.540;2023-06-22T12:08:09;23.60;99.90
15455;DHT22;21057;51.024;7.540;2023-06-22T12:10:38;23.10;99.90
15455;DHT22;21057;51.024;7.540;2023-06-22T12:13:06;22.80;99.90
15455;DHT22;21057;51.024;7.540;2023-06-22T12:15:32;22.80;99.90
15455;DHT22;21057;51.024;7.540;2023-06-22T12:18:14;22.70;99.90
15455;DHT22;21057;51.024;7.540;2023-06-22T12:20:44;22.80;99.90
15455;DHT22;21057;51.024;7.540;2023-06-22T12:23:11;22.90;99.90
15455;DHT22;21057;51.024;7.540;2023-06-22T12:25:40;22.90;99.90
15455;DHT22;21057;51.024;7.540;2023-06-22T12:28:07;23.10;99.90
15455;DHT22;21057;51.024;7.540;2023-06-22T12:30:34;23.10;99.90
15455;DHT22;21057;51.024;7.540;2023-06-22T12:33:01;23.20;99.90
15455;DHT22;21057;51.024;7.540;2023-06-22T12:35:28;23.40;99.90
15455;DHT22;21057;51.024;7.540;2023-06-22T12:37:54;23.60;99.90
15455;DHT22;21057;51.024;7.540;2023-06-22T12:40:21;23.70;99.90
15455;DHT22;21057;51.024;7.540;2023-06-22T12:42:50;23.70;99.90
15455;DHT22;21057;51.024;7.540;2023-06-22T12:45:16;23.80;99.90
15455;DHT22;21057;51.024;7.540;2023-06-22T12:47:44;23.90;99.90
15455;DHT22;21057;51.024;7.540;2023-06-22T12:50:11;24.00;99.90
15455;DHT22;21057;51.024;7.540;2023-06-22T12:52:39;24.00;99.90
15455;DHT22;21057;51.024;7.540;2023-06-22T12:55:07;24.10;99.90
15455;DHT22;21057;51.024;7.540;2023-06-22T12:57:34;24.30;99.90
15455;DHT22;21057;51.024;7.540;2023-06-22T13:00:03;24.60;99.90
15455;DHT22;21057;51.024;7.540;2023-06-22T13:02:30;24.80;99.90
15455;DHT22;21057;51.024;7.540;2023-06-22T13:04:57;25.20;99.90
15455;DHT22;21057;51.024;7.540;2023-06-22T13:07:24;25.50;99.90
15455;DHT22;21057;51.024;7.540;2023-06-22T13:09:51;25.80;99.90
15455;DHT22;21057;51.024;7.540;2023-06-22T13:12:23;26.30;99.90
15455;DHT22;21057;51.024;7.540;2023-06-22T13:14:50;26.90;99.90
15455;DHT22;21057;51.024;7.540;2023-06-22T13:17:21;27.00;99.90
15455;DHT22;21057;51.024;7.540;2023-06-22T13:19:48;27.40;99.90
15455;DHT22;21057;51.024;7.540;2023-06-22T13:22:29;27.80;99.90
15455;DHT22;21057;51.024;7.540;2023-06-22T13:24:56;28.00;99.90
15455;DHT22;21057;51.024;7.540;2023-06-22T13:27:23;28.20;99.90
15455;DHT22;21057;51.024;7.540;2023-06-22T13:29:50;28.60;99.90
15455;DHT22;21057;51.024;7.540;2023-06-22T13:32:18;28.80;99.90
15455;DHT22;21057;51.024;7.540;2023-06-22T13:34:45;28.70;99.90
15455;DHT22;21057;51.024;7.540;2023-06-22T13:37:12;28.60;99.90
15455;DHT22;21057;51.024;7.540;2023-06-22T13:39:39;28.30;99.90
15455;DHT22;21057;51.024;7.540;2023-06-22T13:42:06;28.30;99.90
15455;DHT22;21057;51.024;7.540;2023-06-22T13:44:33;28.50;99.90
15455;DHT22;21057;51.024;7.540;2023-06-22T13:47:00;28.80;99.90
15455;DHT22;21057;51.024;7.540;2023-06-22T13:49:28;29.00;99.90
15455;DHT22;21057;51.024;7.540;2023-06-22T13:51:55;29.10;99.90
15455;DHT22;21057;51.024;7.540;2023-06-22T13:54:22;29.20;99.90
15455;DHT22;21057;51.024;7.540;2023-06-22T13:56:49;29.40;99.90
15455;DHT22;21057;51.024;7.540;2023-06-22T13:59:16;29.70;99.90
15455;DHT22;21057;51.024;7.540;2023-06-22T14:01:43;29.70;99.90
15455;DHT22;21057;51.024;7.540;2023-06-22T14:04:10;30.10;99.90
15455;DHT22;21057;51.024;7.540;2023-06-22T14:06:38;29.90;99.90
15455;DHT22;21057;51.024;7.540;2023-06-22T14:09:05;30.00;99.90
15455;DHT22;21057;51.024;7.540;2023-06-22T14:11:32;30.10;99.90
15455;DHT22;21057;51.024;7.540;2023-06-22T14:13:59;30.30;99.90
15455;DHT22;21057;51.024;7.540;2023-06-22T14:16:26;30.50;99.90
15455;DHT22;21057;51.024;7.540;2023-06-22T14:18:52;30.40;99.90
15455;DHT22;21057;51.024;7.540;2023-06-22T14:21:19;30.40;99.90
15455;DHT22;21057;51.024;7.540;2023-06-22T14:23:48;30.30;99.90
15455;DHT22;21057;51.024;7.540;2023-06-22T14:26:15;30.40;99.90
15455;DHT22;21057;51.024;7.540;2023-06-22T14:28:44;29.90;99.90
15455;DHT22;21057;51.024;7.540;2023-06-22T14:31:14;29.60;99.90
15455;DHT22;21057;51.024;7.540;2023-06-22T14:33:43;28.80;99.90
15455;DHT22;21057;51.024;7.540;2023-06-22T14:36:10;28.40;99.90
15455;DHT22;21057;51.024;7.540;2023-06-22T14:38:37;28.30;99.90
15455;DHT22;21057;51.024;7.540;2023-06-22T14:41:05;28.00;99.90
15455;DHT22;21057;51.024;7.540;2023-06-22T14:43:32;27.90;99.90
15455;DHT22;21057;51.024;7.540;2023-06-22T14:45:59;27.70;99.90
15455;DHT22;21057;51.024;7.540;2023-06-22T14:48:26;27.40;99.90
15455;DHT22;21057;51.024;7.540;2023-06-22T14:50:53;27.20;99.90
15455;DHT22;21057;51.024;7.540;2023-06-22T14:53:20;27.10;99.90
15455;DHT22;21057;51.024;7.540;2023-06-22T14:55:47;27.10;99.90
15455;DHT22;21057;51.024;7.540;2023-06-22T14:58:15;26.90;99.90
15455;DHT22;21057;51.024;7.540;2023-06-22T15:00:42;26.70;99.90
15455;DHT22;21057;51.024;7.540;2023-06-22T15:03:09;26.30;99.90
15455;DHT22;21057;51.024;7.540;2023-06-22T15:05:42;26.10;99.90
15455;DHT22;21057;51.024;7.540;2023-06-22T15:08:09;25.80;99.90
15455;DHT22;21057;51.024;7.540;2023-06-22T15:10:37;25.80;99.90
15455;DHT22;21057;51.024;7.540;2023-06-22T15:13:03;25.80;99.90
15455;DHT22;21057;51.024;7.540;2023-06-22T15:15:32;25.90;99.90
15455;DHT22;21057;51.024;7.540;2023-06-22T15:17:59;25.90;99.90
15455;DHT22;21057;51.024;7.540;2023-06-22T15:20:26;25.80;99.90
15455;DHT22;21057;51.024;7.540;2023-06-22T15:22:53;25.70;99.90
15455;DHT22;21057;51.024;7.540;2023-06-22T15:25:20;25.60;99.90
15455;DHT22;21057;51.024;7.540;2023-06-22T15:27:47;25.70;99.90
15455;DHT22;21057;51.024;7.540;2023-06-22T15:30:14;25.40;99.90
15455;DHT22;21057;51.024;7.540;2023-06-22T15:32:43;25.10;99.90
15455;DHT22;21057;51.024;7.540;2023-06-22T15:35:12;25.10;99.90
15455;DHT22;21057;51.024;7.540;2023-06-22T15:37:40;24.70;99.90
15455;DHT22;21057;51.024;7.540;2023-06-22T15:40:07;24.20;99.90
15455;DHT22;21057;51.024;7.540;2023-06-22T15:42:35;23.90;99.90
15455;DHT22;21057;51.024;7.540;2023-06-22T15:45:01;23.90;99.90
15455;DHT22;21057;51.024;7.540;2023-06-22T15:47:28;24.10;99.90